createdAt,value
2019-03-01T06:05:06.865Z,31.37
2019-03-01T06:07:37.311Z,30.32
2019-03-01T06:10:13.771Z,34.23
2019-03-01T06:12:57.535Z,33.58
2019-03-01T06:15:31.117Z,33.83
2019-03-01T06:18:17.832Z,30.20
2019-03-01T06:20:50.675Z,27.80
2019-03-01T06:23:33.060Z,32.03
2019-03-01T06:26:06.415Z,32.73
2019-03-01T06:28:48.576Z,32.05
2019-03-01T06:31:28.317Z,31.60
2019-03-01T06:33:58.713Z,28.52
2019-03-01T06:36:41.323Z,30.12
2019-03-01T06:42:09.325Z,28.57
2019-03-01T06:44:55.792Z,27.97
2019-03-01T06:47:29.259Z,29.40
2019-03-01T06:49:59.845Z,31.93
2019-03-01T06:52:28.603Z,35.80
2019-03-01T06:54:57.496Z,34.48
2019-03-01T06:57:26.208Z,40.83
2019-03-01T06:59:55.102Z,43.08
2019-03-01T07:02:25.737Z,46.20
2019-03-01T07:04:54.561Z,45.38
2019-03-01T07:07:23.743Z,54.60
2019-03-01T07:09:52.659Z,53.98
2019-03-01T07:12:21.835Z,48.83
2019-03-01T07:14:51.563Z,39.10
2019-03-01T07:17:20.472Z,47.23
2019-03-01T07:19:49.470Z,44.33
2019-03-01T07:22:18.429Z,44.75
2019-03-01T07:24:47.428Z,40.67
2019-03-01T07:27:16.435Z,37.63
2019-03-01T07:29:45.641Z,45.15
2019-03-01T07:32:14.889Z,40.12
2019-03-01T07:34:43.794Z,40.85
2019-03-01T07:37:12.744Z,43.87
2019-03-01T07:39:41.845Z,35.70
2019-03-01T07:42:10.901Z,37.48
2019-03-01T07:44:39.910Z,38.17
2019-03-01T07:47:08.862Z,40.52
2019-03-01T07:49:37.735Z,44.67
2019-03-01T07:52:06.767Z,44.53
2019-03-01T07:54:36.910Z,33.00
2019-03-01T07:57:05.895Z,27.58
2019-03-01T07:59:38.205Z,26.07
2019-03-01T08:02:05.265Z,28.60
2019-03-01T08:04:34.354Z,29.82
2019-03-01T08:07:03.275Z,30.90
2019-03-01T08:09:32.098Z,29.02
2019-03-01T08:12:03.675Z,26.82
2019-03-01T08:14:31.647Z,24.45
2019-03-01T08:17:00.813Z,25.10
2019-03-01T08:19:30.966Z,25.27
2019-03-01T08:22:00.071Z,25.62
2019-03-01T08:24:29.144Z,24.02
2019-03-01T08:26:57.921Z,24.55
2019-03-01T08:29:26.771Z,24.23
2019-03-01T08:31:55.905Z,23.00
2019-03-01T08:34:26.064Z,20.48
2019-03-01T08:36:55.905Z,21.20
2019-03-01T08:39:24.710Z,20.52
2019-03-01T08:41:53.364Z,20.85
2019-03-01T08:44:23.121Z,22.45
2019-03-01T08:46:52.845Z,20.85
2019-03-01T08:49:21.859Z,22.55
2019-03-01T08:51:51.083Z,22.42
2019-03-01T08:54:22.872Z,23.15
2019-03-01T08:56:50.443Z,20.90
2019-03-01T08:59:20.662Z,21.27
2019-03-01T09:01:49.405Z,21.68
2019-03-01T09:04:21.460Z,24.57
2019-03-01T09:06:48.856Z,20.75
2019-03-01T09:09:20.918Z,26.33
2019-03-01T09:11:48.532Z,28.30
2019-03-01T09:14:17.486Z,22.77
2019-03-01T09:16:46.858Z,20.23
2019-03-01T09:19:15.579Z,22.58
2019-03-01T09:21:49.979Z,21.35
2019-03-01T09:24:16.075Z,21.37
2019-03-01T09:26:45.192Z,19.25
2019-03-01T09:29:18.574Z,18.15
2019-03-01T09:31:44.891Z,18.40
2019-03-01T09:34:13.835Z,18.87
2019-03-01T09:36:44.117Z,19.00
2019-03-01T09:39:14.530Z,19.35
2019-03-01T09:41:43.665Z,18.07
2019-03-01T09:44:12.555Z,17.70
2019-03-01T09:46:42.743Z,19.90
2019-03-01T09:49:11.913Z,17.62
2019-03-01T09:51:43.688Z,19.05
2019-03-01T09:54:11.782Z,21.87
2019-03-01T09:56:40.585Z,20.27
2019-03-01T09:59:09.435Z,18.25
2019-03-01T10:01:39.495Z,21.07
2019-03-01T10:04:08.448Z,28.35
2019-03-01T10:06:38.282Z,20.37
2019-03-01T10:09:08.952Z,26.25
2019-03-01T10:11:38.061Z,19.17
2019-03-01T10:14:07.268Z,18.32
2019-03-01T10:16:36.314Z,18.57
2019-03-01T10:19:05.472Z,21.50
2019-03-01T10:21:34.426Z,17.55
2019-03-01T10:24:03.384Z,18.73
2019-03-01T10:26:32.614Z,19.77
2019-03-01T10:29:01.664Z,19.30
2019-03-01T10:31:30.412Z,18.32
2019-03-01T10:33:59.574Z,17.60
2019-03-01T10:36:28.283Z,17.25
2019-03-01T10:38:57.390Z,16.30
2019-03-01T10:41:26.618Z,23.38
2019-03-01T10:43:55.646Z,24.92
2019-03-01T10:46:24.525Z,16.27
2019-03-01T10:48:53.397Z,16.80
2019-03-01T10:51:23.676Z,17.80
2019-03-01T10:53:52.645Z,16.93
2019-03-01T10:56:21.558Z,14.87
2019-03-01T10:58:50.264Z,20.10
2019-03-01T11:01:19.064Z,13.05
2019-03-01T11:03:48.037Z,16.57
2019-03-01T11:06:16.870Z,16.73
2019-03-01T11:08:45.942Z,22.40
2019-03-01T11:11:14.667Z,18.15
2019-03-01T11:13:43.641Z,23.47
2019-03-01T11:16:12.403Z,16.70
2019-03-01T11:18:41.154Z,20.12
2019-03-01T11:21:10.259Z,19.85
2019-03-01T11:23:39.498Z,19.57
2019-03-01T11:26:08.647Z,17.05
2019-03-01T11:28:37.392Z,23.20
2019-03-01T11:31:06.375Z,21.52
2019-03-01T11:33:35.203Z,16.23
2019-03-01T11:36:04.843Z,14.95
2019-03-01T11:38:33.714Z,15.85
2019-03-01T11:41:02.482Z,20.65
2019-03-01T11:43:31.459Z,15.70
2019-03-01T11:46:00.882Z,16.85
2019-03-01T11:48:29.932Z,18.45
2019-03-01T11:50:59.122Z,15.80
2019-03-01T11:53:28.001Z,14.70
2019-03-01T11:55:57.054Z,15.93
2019-03-01T11:58:26.205Z,12.68
2019-03-01T12:00:54.873Z,14.35
2019-03-01T12:03:23.796Z,13.32
2019-03-01T12:05:52.856Z,11.83
2019-03-01T12:08:21.811Z,14.07
2019-03-01T12:10:51.816Z,18.80
2019-03-01T12:13:22.082Z,16.65
2019-03-01T12:15:51.038Z,30.17
2019-03-01T12:18:20.012Z,16.40
2019-03-01T12:20:48.911Z,10.68
2019-03-01T12:23:17.754Z,11.50
2019-03-01T12:25:46.845Z,10.55
2019-03-01T12:28:15.857Z,11.70
2019-03-01T12:30:44.978Z,12.98
2019-03-01T12:33:14.164Z,12.63
2019-03-01T12:35:43.356Z,14.87
2019-03-01T12:38:12.475Z,11.78
2019-03-01T12:40:41.443Z,13.05
2019-03-01T12:43:10.370Z,18.57
2019-03-01T12:45:39.481Z,15.15
2019-03-01T12:48:08.352Z,13.80
2019-03-01T12:50:37.183Z,10.50
2019-03-01T12:53:06.356Z,11.53
2019-03-01T12:55:35.071Z,12.33
2019-03-01T12:58:04.114Z,11.60
2019-03-01T13:00:33.804Z,11.38
2019-03-01T13:03:05.216Z,8.95
2019-03-01T13:05:33.369Z,9.75
2019-03-01T13:08:02.383Z,12.15
2019-03-01T13:10:32.878Z,9.58
2019-03-01T13:13:02.290Z,15.15
2019-03-01T13:15:32.504Z,10.68
2019-03-01T13:18:03.329Z,9.60
2019-03-01T13:20:33.750Z,9.15
2019-03-01T13:23:04.876Z,9.15
2019-03-01T13:25:33.089Z,12.65
2019-03-01T13:28:03.237Z,10.68
2019-03-01T13:30:32.503Z,11.18
2019-03-01T13:33:03.625Z,12.23
2019-03-01T13:35:32.920Z,13.90
2019-03-01T13:38:03.655Z,14.10
2019-03-01T13:40:32.290Z,13.48
2019-03-01T13:43:01.057Z,12.18
2019-03-01T13:45:29.901Z,12.75
2019-03-01T13:47:59.023Z,16.80
2019-03-01T13:50:27.823Z,11.80
2019-03-01T13:52:56.829Z,12.55
2019-03-01T13:55:27.606Z,11.73
2019-03-01T13:57:56.461Z,12.23
2019-03-01T14:00:25.268Z,11.95
2019-03-01T14:02:54.484Z,17.77
2019-03-01T14:05:23.692Z,16.37
2019-03-01T14:07:56.749Z,17.10
2019-03-01T14:10:29.709Z,17.12
2019-03-01T14:12:58.831Z,25.23
2019-03-01T14:15:29.734Z,17.25
2019-03-01T14:18:01.086Z,14.05
2019-03-01T14:20:28.202Z,11.97
2019-03-01T14:22:57.345Z,9.45
2019-03-01T14:25:26.071Z,8.00
2019-03-01T14:27:54.780Z,11.00
2019-03-01T14:30:29.140Z,19.67
2019-03-01T14:33:13.822Z,8.53
2019-03-01T14:35:42.496Z,9.70
2019-03-01T14:38:11.182Z,8.40
2019-03-01T14:40:40.003Z,7.22
2019-03-01T14:43:10.025Z,7.25
2019-03-01T14:45:41.736Z,10.05
2019-03-01T14:48:09.614Z,8.98
2019-03-01T14:50:38.674Z,10.60
2019-03-01T14:53:07.507Z,11.25
2019-03-01T14:55:37.691Z,9.43
2019-03-01T14:58:07.937Z,11.48
2019-03-01T15:00:37.963Z,9.33
2019-03-01T15:03:08.262Z,15.80
2019-03-01T15:05:38.741Z,11.45
2019-03-01T15:08:07.731Z,14.10
2019-03-01T15:10:37.804Z,14.13
2019-03-01T15:13:06.677Z,16.17
2019-03-01T15:15:35.409Z,17.10
2019-03-01T15:18:05.022Z,19.60
2019-03-01T15:20:33.889Z,27.70
2019-03-01T15:23:02.862Z,15.05
2019-03-01T15:25:35.120Z,15.70
2019-03-01T15:28:04.364Z,27.48
2019-03-01T15:30:33.054Z,22.85
2019-03-01T15:33:01.896Z,16.25
2019-03-01T15:35:30.669Z,12.13
2019-03-01T15:37:59.369Z,30.25
2019-03-01T15:40:31.500Z,15.88
2019-03-01T15:42:58.562Z,24.30
2019-03-01T15:45:28.443Z,23.32
2019-03-01T15:47:58.713Z,18.62
2019-03-01T15:50:28.223Z,18.77
2019-03-01T15:52:57.508Z,10.35
2019-03-01T15:55:29.573Z,6.10
2019-03-01T15:57:57.675Z,4.60
2019-03-01T16:00:29.465Z,9.50
2019-03-01T16:02:57.304Z,18.37
2019-03-01T16:05:26.164Z,6.85
2019-03-01T16:07:54.902Z,6.22
2019-03-01T16:10:24.039Z,8.18
2019-03-01T16:12:52.703Z,9.08
2019-03-01T16:15:21.802Z,20.62
2019-03-01T16:17:50.768Z,9.63
2019-03-01T16:20:20.407Z,159.80
2019-03-01T16:22:51.024Z,48.13
2019-03-01T16:25:20.617Z,19.10
2019-03-01T16:27:50.795Z,26.57
2019-03-01T16:30:21.866Z,16.05
2019-03-01T16:32:50.855Z,23.27
2019-03-01T16:35:20.062Z,19.65
2019-03-01T16:37:53.917Z,50.08
2019-03-01T16:40:24.195Z,32.23
2019-03-01T16:42:54.575Z,59.90
2019-03-01T16:45:23.501Z,112.45
2019-03-01T16:47:52.529Z,56.42
2019-03-01T16:50:21.383Z,60.78
2019-03-01T16:52:50.110Z,59.53
2019-03-01T16:55:19.713Z,51.25
2019-03-01T16:57:52.039Z,53.55
2019-03-01T17:00:19.583Z,57.48
2019-03-01T17:02:49.536Z,36.85
2019-03-01T17:05:18.288Z,27.70
2019-03-01T17:07:47.122Z,27.22
2019-03-01T17:10:17.293Z,49.00
2019-03-01T17:12:48.870Z,37.03
2019-03-01T17:15:17.933Z,31.40
2019-03-01T17:17:46.984Z,28.90
2019-03-01T17:20:15.817Z,15.78
2019-03-01T17:22:44.365Z,13.08
2019-03-01T17:25:15.783Z,13.60
2019-03-01T17:27:45.145Z,14.55
2019-03-01T17:30:15.352Z,11.70
2019-03-01T17:32:43.971Z,14.70
2019-03-01T17:35:14.695Z,11.08
2019-03-01T17:37:44.467Z,16.07
2019-03-01T17:40:15.779Z,17.60
2019-03-01T17:42:44.865Z,24.67
2019-03-01T17:45:17.296Z,19.57
2019-03-01T17:47:46.258Z,23.42
2019-03-01T17:50:15.119Z,51.50
2019-03-01T17:52:44.003Z,60.63
2019-03-01T17:55:13.513Z,56.63
2019-03-01T17:57:42.263Z,64.07
2019-03-01T18:00:14.854Z,70.30
2019-03-01T18:02:43.456Z,45.30
2019-03-01T18:05:12.574Z,33.50
2019-03-01T18:07:41.492Z,26.77
2019-03-01T18:10:14.363Z,17.67
2019-03-01T18:12:43.243Z,19.27
2019-03-01T18:15:13.408Z,19.67
2019-03-01T18:17:42.252Z,19.67
2019-03-01T18:20:11.772Z,24.65
2019-03-01T18:22:41.929Z,24.00
2019-03-01T18:25:11.224Z,28.30
2019-03-01T18:27:40.095Z,23.62
2019-03-01T18:30:16.212Z,23.05
2019-03-01T18:32:45.209Z,27.87
2019-03-01T18:35:14.185Z,35.03
2019-03-01T18:37:43.079Z,33.42
2019-03-01T18:40:13.530Z,34.48
2019-03-01T18:42:42.704Z,32.50
2019-03-01T18:45:15.733Z,20.82
2019-03-01T18:47:44.424Z,23.02
2019-03-01T18:50:17.574Z,36.77
2019-03-01T18:52:49.618Z,37.88
2019-03-01T18:55:18.485Z,56.83
2019-03-01T18:57:47.297Z,82.17
2019-03-01T19:00:23.690Z,83.78
2019-03-01T19:02:52.484Z,70.15
2019-03-01T19:05:22.405Z,64.55
2019-03-01T19:07:51.144Z,59.48
2019-03-01T19:10:23.980Z,63.87
2019-03-01T19:12:51.516Z,56.65
2019-03-01T19:15:20.307Z,57.70
2019-03-01T19:17:49.016Z,40.00
2019-03-01T19:20:22.603Z,52.62
2019-03-01T19:22:52.802Z,47.70
2019-03-01T19:25:24.861Z,41.83
2019-03-01T19:27:52.400Z,41.88
2019-03-01T19:30:22.194Z,38.80
2019-03-01T19:32:51.485Z,34.25
2019-03-01T19:35:20.218Z,29.05
2019-03-01T19:37:49.508Z,26.90
2019-03-01T19:40:21.434Z,28.00
2019-03-01T19:42:50.246Z,26.62
2019-03-01T19:45:19.332Z,21.23
2019-03-01T19:47:48.783Z,20.65
2019-03-01T19:50:25.080Z,22.77
2019-03-01T19:52:53.109Z,39.33
2019-03-01T19:55:22.927Z,40.98
2019-03-01T19:57:51.818Z,54.20
2019-03-01T20:00:27.965Z,31.57
2019-03-01T20:02:56.652Z,17.85
2019-03-01T20:05:33.219Z,15.80
2019-03-01T20:08:02.084Z,16.40
2019-03-01T20:10:30.842Z,14.87
2019-03-01T20:12:59.755Z,21.20
2019-03-01T20:15:29.435Z,14.25
2019-03-01T20:17:58.222Z,11.63
2019-03-01T20:20:30.006Z,11.95
2019-03-01T20:22:57.829Z,23.67
2019-03-01T20:25:26.391Z,21.97
2019-03-01T20:27:55.130Z,24.75
2019-03-01T20:30:30.208Z,40.35
2019-03-01T20:32:55.550Z,39.53
2019-03-01T20:35:25.831Z,27.95
2019-03-01T20:38:00.395Z,14.93
2019-03-01T20:40:28.286Z,12.98
2019-03-01T20:43:01.306Z,12.18
2019-03-01T20:45:29.986Z,13.80
2019-03-01T20:47:58.721Z,85.83
2019-03-01T20:50:27.442Z,51.37
2019-03-01T20:52:56.055Z,61.88
2019-03-01T20:55:24.844Z,37.55
2019-03-01T20:57:53.571Z,32.83
2019-03-01T21:00:26.101Z,41.25
2019-03-01T21:02:53.982Z,37.53
2019-03-01T21:05:24.954Z,28.35
2019-03-01T21:07:53.797Z,24.87
2019-03-01T21:10:28.266Z,18.80
2019-03-01T21:12:56.978Z,22.80
2019-03-01T21:15:25.723Z,19.35
2019-03-01T21:17:57.135Z,21.27
2019-03-01T21:20:26.289Z,26.33
2019-03-01T21:22:54.933Z,23.52
2019-03-01T21:25:24.575Z,23.05
2019-03-01T21:27:53.526Z,22.45
2019-03-01T21:30:24.240Z,23.00
2019-03-01T21:32:53.566Z,26.13
2019-03-01T21:35:22.496Z,26.17
2019-03-01T21:37:51.725Z,27.77
2019-03-01T21:40:20.864Z,32.03
2019-03-01T21:42:52.892Z,34.60
2019-03-01T21:45:22.434Z,40.10
2019-03-01T21:47:51.783Z,27.25
2019-03-01T21:50:20.953Z,26.65
2019-03-01T21:52:49.764Z,29.57
2019-03-01T21:55:20.343Z,31.68
2019-03-01T21:57:49.250Z,32.30
2019-03-01T22:00:29.953Z,29.70
2019-03-01T22:02:55.862Z,27.52
2019-03-01T22:05:24.679Z,26.20
2019-03-01T22:07:53.532Z,30.00
2019-03-01T22:10:22.155Z,30.75
2019-03-01T22:12:50.943Z,32.78
2019-03-01T22:15:27.285Z,34.25
2019-03-01T22:17:56.553Z,35.17
2019-03-01T22:20:25.723Z,38.02
2019-03-01T22:22:54.666Z,40.88
2019-03-01T22:25:23.394Z,50.90
2019-03-01T22:27:52.325Z,43.00
2019-03-01T22:30:28.643Z,70.57
2019-03-01T22:32:57.355Z,82.00
2019-03-01T22:35:26.105Z,93.30
2019-03-01T22:37:55.020Z,67.10
2019-03-01T22:40:27.584Z,68.37
2019-03-01T22:42:54.311Z,56.02
2019-03-01T22:45:23.028Z,47.85
2019-03-01T22:47:51.972Z,51.95
2019-03-01T22:50:20.998Z,45.48
2019-03-01T22:52:49.623Z,53.05
2019-03-01T22:55:18.788Z,48.45
2019-03-01T22:57:47.695Z,46.02
2019-03-01T23:00:47.715Z,47.27
2019-03-01T23:03:19.270Z,38.83
2019-03-01T23:05:48.883Z,31.05
2019-03-01T23:08:17.567Z,25.10
2019-03-01T23:10:47.398Z,21.85
2019-03-01T23:13:17.118Z,27.55
2019-03-01T23:15:46.802Z,35.78
2019-03-01T23:18:15.883Z,32.10
2019-03-01T23:20:44.790Z,35.35
2019-03-01T23:23:13.662Z,34.98
2019-03-01T23:25:42.709Z,38.05
2019-03-01T23:28:13.500Z,42.90
2019-03-01T23:30:42.364Z,37.15
2019-03-01T23:33:11.248Z,31.87
2019-03-01T23:35:40.444Z,30.70
2019-03-01T23:38:11.504Z,29.00
2019-03-01T23:40:39.797Z,31.75
2019-03-01T23:43:08.812Z,30.50
2019-03-01T23:45:37.931Z,30.48
2019-03-01T23:48:06.599Z,30.72
2019-03-01T23:50:35.775Z,29.48
2019-03-01T23:53:04.893Z,40.35
2019-03-01T23:55:33.842Z,46.58
2019-03-01T23:58:06.100Z,46.60
